createdAt,value
2018-09-18T05:06:00.432Z,18.95
2018-09-18T05:11:03.767Z,18.94
2018-09-18T05:16:07.114Z,18.94
2018-09-18T05:21:10.462Z,18.88
2018-09-18T05:26:13.783Z,18.92
2018-09-18T05:31:18.889Z,18.82
2018-09-18T05:36:26.054Z,18.79
2018-09-18T05:41:29.391Z,18.76
2018-09-18T05:46:35.555Z,18.73
2018-09-18T05:51:38.898Z,18.80
2018-09-18T05:56:54.409Z,18.81
2018-09-18T06:01:57.766Z,18.84
2018-09-18T06:07:01.109Z,18.86
2018-09-18T06:12:05.210Z,18.92
2018-09-18T06:17:08.547Z,19.00
2018-09-18T06:22:12.655Z,19.09
2018-09-18T06:27:15.990Z,19.20
2018-09-18T06:32:19.322Z,19.36
2018-09-18T06:37:22.663Z,19.48
2018-09-18T06:42:26.323Z,19.61
2018-09-18T06:47:30.347Z,19.68
2018-09-18T06:52:33.681Z,19.82
2018-09-18T06:57:37.780Z,19.95
2018-09-18T07:02:41.105Z,20.15
2018-09-18T07:07:44.439Z,20.30
2018-09-18T07:12:47.778Z,20.40
2018-09-18T07:17:51.155Z,20.57
2018-09-18T07:22:54.442Z,20.79
2018-09-18T07:27:57.772Z,20.92
2018-09-18T07:33:01.102Z,21.10
2018-09-18T07:38:05.198Z,21.25
2018-09-18T07:43:08.535Z,21.37
2018-09-18T07:48:12.636Z,21.51
2018-09-18T07:53:15.971Z,21.75
2018-09-18T07:58:19.324Z,21.76
2018-09-18T08:03:22.659Z,21.98
2018-09-18T08:08:26.017Z,22.11
2018-09-18T08:13:30.107Z,22.23
2018-09-18T08:18:33.446Z,22.37
2018-09-18T08:23:36.788Z,22.35
2018-09-18T08:28:40.122Z,22.62
2018-09-18T08:33:43.446Z,22.62
2018-09-18T08:38:46.774Z,22.78
2018-09-18T08:43:50.122Z,22.90
2018-09-18T08:48:53.452Z,22.91
2018-09-18T08:53:57.561Z,23.06
2018-09-18T08:59:00.916Z,23.30
2018-09-18T09:04:04.244Z,23.31
2018-09-18T09:09:07.614Z,23.52
2018-09-18T09:14:10.927Z,23.26
2018-09-18T09:19:15.028Z,23.75
2018-09-18T09:24:18.364Z,23.90
2018-09-18T09:29:21.739Z,23.90
2018-09-18T09:34:25.068Z,23.94
2018-09-18T09:39:28.455Z,24.17
2018-09-18T09:44:31.792Z,24.29
2018-09-18T09:49:35.485Z,24.32
2018-09-18T09:54:39.036Z,24.47
2018-09-18T09:59:42.380Z,24.50
2018-09-18T10:04:45.723Z,24.58
2018-09-18T10:09:49.071Z,24.68
2018-09-18T10:14:52.460Z,24.79
2018-09-18T10:19:55.803Z,24.78
2018-09-18T10:24:59.269Z,24.68
2018-09-18T10:30:02.494Z,24.83
2018-09-18T10:35:05.831Z,24.99
2018-09-18T10:40:09.194Z,25.04
2018-09-18T10:45:12.556Z,25.01
2018-09-18T10:50:15.947Z,25.08
2018-09-18T10:55:19.303Z,25.01
2018-09-18T11:00:22.674Z,25.25
2018-09-18T11:05:26.017Z,25.38
2018-09-18T11:10:29.380Z,25.49
2018-09-18T11:15:32.854Z,25.49
2018-09-18T11:20:36.207Z,25.48
2018-09-18T11:25:39.587Z,25.66
2018-09-18T11:30:42.950Z,25.78
2018-09-18T11:35:47.316Z,25.90
2018-09-18T11:40:50.645Z,26.09
2018-09-18T11:46:10.548Z,26.20
2018-09-18T11:51:13.887Z,26.47
2018-09-18T11:56:20.854Z,26.60
2018-09-18T12:01:24.191Z,26.63
2018-09-18T12:06:50.952Z,26.84
2018-09-18T12:11:55.046Z,26.77
2018-09-18T12:16:58.410Z,26.97
2018-09-18T12:22:01.727Z,27.35
2018-09-18T12:27:05.058Z,27.41
2018-09-18T12:32:08.407Z,27.65
2018-09-18T12:37:11.744Z,27.62
2018-09-18T12:42:15.282Z,27.95
2018-09-18T12:47:18.491Z,28.11
2018-09-18T12:52:21.828Z,27.88
2018-09-18T12:57:25.315Z,28.05
2018-09-18T13:02:29.291Z,27.84
2018-09-18T13:07:32.663Z,28.61
2018-09-18T13:12:36.746Z,28.53
2018-09-18T13:17:40.107Z,28.75
2018-09-18T13:22:44.212Z,29.14
2018-09-18T13:27:48.344Z,28.95
2018-09-18T13:32:51.676Z,29.09
2018-09-18T13:37:55.030Z,29.79
2018-09-18T13:42:58.397Z,29.72
2018-09-18T13:48:01.739Z,29.77
2018-09-18T13:53:05.087Z,29.82
2018-09-18T13:58:08.455Z,30.07
2018-09-18T14:03:11.796Z,30.34
2018-09-18T14:08:15.244Z,30.09
2018-09-18T14:13:18.601Z,30.68
2018-09-18T14:18:21.944Z,30.73
2018-09-18T14:23:25.285Z,30.29
2018-09-18T14:28:29.387Z,31.16
2018-09-18T14:33:32.730Z,32.07
2018-09-18T14:38:36.826Z,32.18
2018-09-18T14:43:40.159Z,30.18
2018-09-18T14:48:45.936Z,31.41
2018-09-18T14:53:50.040Z,31.54
2018-09-18T14:58:53.372Z,30.99
2018-09-18T15:03:56.724Z,30.84
2018-09-18T15:09:00.057Z,31.36
2018-09-18T15:14:03.392Z,31.71
2018-09-18T15:19:06.721Z,32.20
2018-09-18T15:24:10.075Z,31.66
2018-09-18T15:29:13.423Z,31.26
2018-09-18T15:34:16.780Z,30.27
2018-09-18T15:39:20.877Z,29.51
2018-09-18T15:44:24.308Z,29.17
2018-09-18T15:49:27.631Z,28.79
2018-09-18T15:54:31.744Z,29.08
2018-09-18T15:59:35.076Z,29.19
2018-09-18T16:04:39.284Z,28.45
2018-09-18T16:09:42.729Z,28.64
2018-09-18T16:14:46.108Z,28.57
2018-09-18T16:19:50.239Z,28.20
2018-09-18T16:24:53.604Z,28.24
2018-09-18T16:29:58.316Z,27.99
2018-09-18T16:35:01.654Z,27.89
2018-09-18T16:40:05.021Z,27.63
2018-09-18T16:45:08.346Z,27.29
2018-09-18T16:50:11.696Z,27.11
2018-09-18T16:55:15.956Z,26.60
2018-09-18T17:00:19.190Z,26.34
2018-09-18T17:05:22.519Z,26.20
2018-09-18T17:10:25.861Z,26.10
2018-09-18T17:15:29.202Z,26.13
2018-09-18T17:20:32.551Z,26.01
2018-09-18T17:25:36.882Z,25.95
2018-09-18T17:30:40.311Z,25.57
2018-09-18T17:35:43.677Z,25.43
2018-09-18T17:40:46.969Z,24.84
2018-09-18T17:46:04.690Z,24.51
2018-09-18T17:51:08.040Z,24.18
2018-09-18T17:56:18.431Z,23.99
2018-09-18T18:01:21.789Z,23.62
2018-09-18T18:06:37.638Z,23.38
2018-09-18T18:11:41.044Z,22.77
2018-09-18T18:16:52.047Z,22.60
2018-09-18T18:21:55.371Z,22.49
2018-09-18T18:32:09.284Z,22.24
2018-09-18T18:37:12.615Z,22.25
2018-09-18T18:42:16.729Z,22.44
2018-09-18T18:47:20.088Z,22.57
2018-09-18T18:52:24.226Z,22.73
2018-09-18T18:57:27.555Z,22.82
2018-09-18T19:02:31.034Z,22.67
2018-09-18T19:07:34.510Z,22.90
2018-09-18T19:12:38.067Z,23.02
2018-09-18T19:17:41.653Z,23.11
2018-09-18T19:22:45.376Z,23.06
2018-09-18T19:27:48.740Z,23.18
2018-09-18T19:32:52.589Z,23.06
2018-09-18T19:37:55.855Z,22.89
2018-09-18T19:42:59.213Z,22.59
2018-09-18T19:48:02.589Z,22.08
2018-09-18T19:53:06.738Z,22.32
2018-09-18T19:58:10.211Z,22.21
2018-09-18T20:03:13.866Z,22.27
2018-09-18T20:08:17.971Z,22.39
2018-09-18T20:13:21.339Z,22.36
2018-09-18T20:18:25.090Z,22.40
2018-09-18T20:23:28.431Z,22.28
2018-09-18T20:28:32.113Z,22.22
2018-09-18T20:33:35.736Z,22.15
2018-09-18T20:38:39.443Z,22.05
2018-09-18T20:43:42.764Z,22.01
2018-09-18T20:48:46.107Z,22.21
2018-09-18T20:53:50.216Z,22.34
2018-09-18T20:58:53.566Z,22.13
2018-09-18T21:03:57.676Z,22.10
2018-09-18T21:09:01.019Z,22.03
2018-09-18T21:14:05.151Z,21.86
2018-09-18T21:19:08.477Z,21.71
2018-09-18T21:24:11.824Z,21.77
2018-09-18T21:29:15.163Z,21.73
2018-09-18T21:34:18.495Z,21.48
2018-09-18T21:39:22.590Z,21.46
2018-09-18T21:44:26.940Z,21.50
2018-09-18T21:49:30.281Z,21.43
2018-09-18T21:54:33.616Z,20.29
2018-09-18T21:59:36.950Z,19.70
2018-09-18T22:05:05.198Z,19.46
2018-09-18T22:10:08.541Z,19.47
2018-09-18T22:15:12.280Z,19.44
2018-09-18T22:20:15.649Z,19.49
2018-09-18T22:25:19.874Z,19.63
